KSHN/SHN METAR and TAF weather

Enter ICAO airport designator
Station Type Date Time Source
KSHN METAR 2019/10/22 16:53 UTC NOAA

KSHN 221653Z AUTO 25006KT 10SM OVC011 12/10 A3032 RMK AO2 SLP269 T01170100


Station Type Date Time Source
KSHN Decoded METAR 2019/10/22 16:53 UTC NOAA

SHELTON SANDERSON FIELD, WA, United States (KSHN) 47-14N 123-08W 82M
Oct 22, 2019 - 12:53 PM EDT / 2019.10.22 1653 UTC
Wind: from the WSW (250 degrees) at 7 MPH (6 KT):0
Visibility: 10 mile(s):0
Sky conditions: overcast
Temperature: 53.1 F (11.7 C)
Dew Point: 50.0 F (10.0 C)
Relative Humidity: 89%
Pressure (altimeter): 30.32 in. Hg (1026 hPa)
ob: KSHN 221653Z AUTO 25006KT 10SM OVC011 12/10 A3032 RMK AO2 SLP269 T01170100
cycle: 17

Station Type Date Time Source
KSHN TAF UTC NOAA

Error!

Example: see airport list